createdAt,value
2022-08-28T00:00:45.187Z,97011.16
2022-08-28T00:03:32.335Z,97026.78
2022-08-28T00:06:19.050Z,97019.09
2022-08-28T00:09:05.299Z,97017.03
2022-08-28T00:11:50.951Z,97016.03
2022-08-28T00:14:36.829Z,97013.88
2022-08-28T00:17:22.282Z,97015.47
2022-08-28T00:20:10.332Z,97007.41
2022-08-28T00:22:56.650Z,97008.50
2022-08-28T00:25:42.459Z,97013.88
2022-08-28T00:28:28.025Z,97013.88
2022-08-28T00:31:13.608Z,97014.94
2022-08-28T00:33:59.102Z,97014.44
2022-08-28T00:36:44.638Z,97016.91
2022-08-28T00:39:30.212Z,97020.72
2022-08-28T00:42:15.660Z,97017.25
2022-08-28T00:45:01.354Z,97014.56
2022-08-28T00:47:47.262Z,97012.97
2022-08-28T00:50:56.857Z,97008.13
2022-08-28T00:53:46.379Z,97007.03
2022-08-28T00:56:33.133Z,97003.25
2022-08-28T00:59:21.691Z,97012.59
2022-08-28T01:02:08.240Z,97014.50
2022-08-28T01:04:55.249Z,97006.44
2022-08-28T01:07:41.190Z,97019.88
2022-08-28T01:10:30.712Z,97017.97
2022-08-28T01:13:18.162Z,97008.06
2022-08-28T01:16:05.580Z,97019.88
2022-08-28T01:18:53.051Z,97021.47
2022-08-28T01:22:00.475Z,97019.56
2022-08-28T01:24:49.642Z,97020.66
2022-08-28T01:27:36.629Z,97023.34
2022-08-28T01:30:24.268Z,97020.97
2022-08-28T01:33:10.280Z,97021.78
2022-08-28T01:35:57.883Z,97025.25
2022-08-28T01:38:46.977Z,97025.75
2022-08-28T01:41:33.475Z,97030.06
2022-08-28T01:44:24.392Z,97018.19
2022-08-28T01:47:09.884Z,97025.97
2022-08-28T01:49:55.359Z,97020.09
2022-08-28T01:52:41.739Z,97022.09
2022-08-28T01:55:29.487Z,97022.72
2022-08-28T01:58:16.211Z,97021.25
2022-08-28T02:01:02.179Z,97026.69
2022-08-28T02:03:49.060Z,97018.09
2022-08-28T02:06:34.805Z,97019.72
2022-08-28T02:09:20.399Z,97021.88
2022-08-28T02:12:06.784Z,97017.63
2022-08-28T02:14:53.187Z,97017.66
2022-08-28T02:17:38.912Z,97019.25
2022-08-28T02:20:25.248Z,97025.13
2022-08-28T02:23:11.258Z,97020.31
2022-08-28T02:25:57.072Z,97021.59
2022-08-28T02:28:43.404Z,97024.22
2022-08-28T02:31:29.128Z,97022.56
2022-08-28T02:34:14.900Z,97012.88
2022-08-28T02:37:00.762Z,97021.69
2022-08-28T02:39:46.447Z,97021.19
2022-08-28T02:42:32.194Z,97013.66
2022-08-28T02:45:19.360Z,97009.88
2022-08-28T02:48:05.072Z,97017.34
2022-08-28T02:51:02.967Z,97011.44
2022-08-28T02:53:50.571Z,97017.34
2022-08-28T02:56:36.057Z,97015.13
2022-08-28T02:59:22.385Z,97009.78
2022-08-28T03:02:08.260Z,97007.09
2022-08-28T03:04:54.486Z,97015.94
2022-08-28T03:07:40.452Z,97012.19
2022-08-28T03:10:26.717Z,97011.38
2022-08-28T03:13:26.514Z,97011.44
2022-08-28T03:16:13.021Z,97005.53
2022-08-28T03:18:58.649Z,97011.44
2022-08-28T03:21:44.284Z,97003.91
2022-08-28T03:24:30.005Z,97009.78
2022-08-28T03:27:15.559Z,97016.44
2022-08-28T03:30:02.698Z,97012.97
2022-08-28T03:32:49.463Z,97014.56
2022-08-28T03:35:34.859Z,97014.56
2022-08-28T03:38:21.515Z,97025.88
2022-08-28T03:41:13.611Z,97014.34
2022-08-28T03:44:01.126Z,97015.72
2022-08-28T03:46:46.731Z,97019.50
2022-08-28T03:49:32.860Z,97017.88
2022-08-28T03:52:18.448Z,97026.22
2022-08-28T03:55:05.522Z,97027.00
2022-08-28T03:57:51.618Z,97022.19
2022-08-28T04:00:37.784Z,97025.66
2022-08-28T04:03:23.644Z,97027.56
2022-08-28T04:06:09.398Z,97028.91
2022-08-28T04:08:55.380Z,97024.91
2022-08-28T04:11:45.812Z,97028.66
2022-08-28T04:14:31.296Z,97037.03
2022-08-28T04:17:16.961Z,97043.47
2022-08-28T04:20:02.386Z,97034.88
2022-08-28T04:22:49.044Z,97036.50
2022-08-28T04:25:40.972Z,97039.47
2022-08-28T04:28:27.458Z,97040.25
2022-08-28T04:31:13.477Z,97041.88
2022-08-28T04:34:00.948Z,97045.84
2022-08-28T04:36:46.829Z,97042.88
2022-08-28T04:39:33.166Z,97052.53
2022-08-28T04:42:19.337Z,97050.38
2022-08-28T04:45:06.450Z,97061.91
2022-08-28T04:47:52.356Z,97047.94
2022-08-28T04:50:43.740Z,97059.47
2022-08-28T04:53:29.740Z,97056.50
2022-08-28T04:56:15.971Z,97059.16
2022-08-28T04:59:02.239Z,97062.66
2022-08-28T05:01:47.819Z,97056.50
2022-08-28T05:04:33.593Z,97051.13
2022-08-28T05:07:19.041Z,97050.56
2022-08-28T05:10:05.162Z,97056.72
2022-08-28T05:12:51.379Z,97062.09
2022-08-28T05:15:40.542Z,97069.34
2022-08-28T05:18:26.008Z,97062.38
2022-08-28T05:21:20.640Z,97063.19
2022-08-28T05:24:07.469Z,97065.59
2022-08-28T05:26:53.471Z,97067.19
2022-08-28T05:29:39.726Z,97064.50
2022-08-28T05:32:24.970Z,97067.69
2022-08-28T05:35:10.709Z,97067.19
2022-08-28T05:37:56.166Z,97068.81
2022-08-28T05:40:47.553Z,97075.56
2022-08-28T05:43:33.284Z,97086.31
2022-08-28T05:46:20.233Z,97093.84
2022-08-28T05:49:09.791Z,97091.69
2022-08-28T05:51:55.970Z,97094.38
2022-08-28T05:54:41.683Z,97097.88
2022-08-28T05:57:27.595Z,97100.25
2022-08-28T06:00:13.813Z,97102.09
2022-08-28T06:02:59.469Z,97108.47
2022-08-28T06:05:45.190Z,97103.88
2022-08-28T06:08:31.461Z,97104.47
2022-08-28T06:11:20.639Z,97106.38
2022-08-28T06:14:10.982Z,97106.94
2022-08-28T06:16:57.019Z,97113.38
2022-08-28T06:19:42.714Z,97109.09
2022-08-28T06:22:28.090Z,97117.44
2022-08-28T06:25:14.303Z,97114.25
2022-08-28T06:28:00.114Z,97113.97
2022-08-28T06:31:08.907Z,97119.34
2022-08-28T06:33:51.846Z,97119.34
2022-08-28T06:36:41.964Z,97123.09
2022-08-28T06:39:27.620Z,97117.75
2022-08-28T06:42:13.050Z,97124.72
2022-08-28T06:44:58.741Z,97124.22
2022-08-28T06:47:44.105Z,97130.38
2022-08-28T06:50:29.831Z,97126.97
2022-08-28T06:53:17.154Z,97126.16
2022-08-28T06:56:07.720Z,97130.72
2022-08-28T06:58:55.381Z,97134.50
2022-08-28T07:01:41.314Z,97140.66
2022-08-28T07:04:27.828Z,97139.56
2022-08-28T07:07:31.276Z,97130.72
2022-08-28T07:10:18.114Z,97143.63
2022-08-28T07:13:05.828Z,97151.72
2022-08-28T07:15:52.023Z,97148.53
2022-08-28T07:18:38.130Z,97155.03
2022-08-28T07:21:23.982Z,97157.75
2022-08-28T07:24:11.448Z,97157.53
2022-08-28T07:26:57.016Z,97161.28
2022-08-28T07:29:42.549Z,97164.31
2022-08-28T07:32:28.906Z,97166.16
2022-08-28T07:35:14.356Z,97166.47
2022-08-28T07:38:00.469Z,97171.28
2022-08-28T07:40:46.038Z,97175.34
2022-08-28T07:43:49.832Z,97180.19
2022-08-28T07:46:35.680Z,97181.28
2022-08-28T07:49:21.696Z,97184.75
2022-08-28T07:52:09.179Z,97186.66
2022-08-28T07:54:56.849Z,97189.59
2022-08-28T07:57:43.501Z,97194.44
2022-08-28T08:00:29.200Z,97192.84
2022-08-28T08:03:15.164Z,97201.97
2022-08-28T08:06:03.468Z,97197.72
2022-08-28T08:08:49.559Z,97206.31
2022-08-28T08:11:35.375Z,97206.88
2022-08-28T08:14:21.066Z,97204.75
2022-08-28T08:17:07.681Z,97212.28
2022-08-28T08:19:55.183Z,97208.53
2022-08-28T08:22:40.612Z,97211.72
2022-08-28T08:25:26.322Z,97211.16
2022-08-28T08:28:11.802Z,97213.31
2022-08-28T08:31:08.603Z,97212.78
2022-08-28T08:33:57.427Z,97215.16
2022-08-28T08:36:43.427Z,97213.81
2022-08-28T08:39:29.556Z,97206.25
2022-08-28T08:42:27.505Z,97213.19
2022-08-28T08:45:21.649Z,97217.13
2022-08-28T08:48:13.967Z,97214.16
2022-08-28T08:51:11.550Z,97226.44
2022-08-28T08:54:08.168Z,97228.00
2022-08-28T08:56:56.122Z,97233.03
2022-08-28T08:59:42.597Z,97233.78
2022-08-28T09:02:37.052Z,97235.34
2022-08-28T09:05:37.930Z,97243.34
2022-08-28T09:08:41.982Z,97235.28
2022-08-28T09:11:46.490Z,97234.19
2022-08-28T09:15:05.824Z,97235.81
2022-08-28T09:18:03.753Z,97244.88
2022-08-28T09:20:51.851Z,97240.81
2022-08-28T09:23:37.287Z,97242.97
2022-08-28T09:26:25.083Z,97243.97
2022-08-28T09:29:19.141Z,97252.28
2022-08-28T09:32:33.709Z,97250.66
2022-08-28T09:35:29.389Z,97258.66
2022-08-28T09:38:21.263Z,97251.59
2022-08-28T09:41:33.401Z,97255.84
2022-08-28T09:44:19.136Z,97260.94
2022-08-28T09:47:04.611Z,97261.75
2022-08-28T09:49:50.409Z,97262.53
2022-08-28T09:52:36.235Z,97255.06
2022-08-28T09:55:35.303Z,97260.66
2022-08-28T09:58:21.829Z,97250.44
2022-08-28T10:01:36.585Z,97257.13
2022-08-28T10:04:42.162Z,97258.69
2022-08-28T10:07:41.472Z,97253.84
2022-08-28T10:29:20.295Z,97266.88
2022-08-28T10:38:37.918Z,97265.38
2022-08-28T10:42:03.073Z,97269.50
2022-08-28T10:44:58.646Z,97266.38
2022-08-28T11:14:02.994Z,97265.56
2022-08-28T11:16:50.293Z,97266.19
2022-08-28T11:28:25.352Z,97257.31
2022-08-28T12:35:28.006Z,97266.13
2022-08-28T12:47:25.627Z,97269.69
2022-08-28T12:50:33.237Z,97271.91
2022-08-28T13:42:07.040Z,97267.28
2022-08-28T15:10:22.096Z,97272.13
2022-08-28T15:38:49.487Z,97258.56
2022-08-28T15:58:54.783Z,97252.56
2022-08-28T16:01:41.009Z,97249.56
2022-08-28T16:04:27.068Z,97245.47
2022-08-28T16:07:13.433Z,97252.03
2022-08-28T16:09:59.744Z,97258.16
2022-08-28T16:12:47.861Z,97261.09
